sensor_id;sensor_type;location;lat;lon;timestamp;pressure;altitude;pressure_sealevel;temperature;humidity
59329;BME280;45100;46.926;7.452;2024-02-14T10:23:31;95953.34;;;7.98;65.51
59329;BME280;45100;46.926;7.452;2024-02-14T10:27:20;95952.04;;;8.13;65.82
59329;BME280;45100;46.926;7.452;2024-02-14T10:31:48;95961.38;;;8.47;61.19
59329;BME280;45100;46.926;7.452;2024-02-14T10:34:26;95963.39;;;8.61;59.58
59329;BME280;45100;46.926;7.452;2024-02-14T10:40:25;95970.34;;;8.77;58.07
59329;BME280;45100;46.926;7.452;2024-02-14T10:41:56;95965.28;;;8.87;60.01
59329;BME280;45100;46.926;7.452;2024-02-14T10:50:37;95958.73;;;9.11;59.38
59329;BME280;45100;46.926;7.452;2024-02-14T10:53:05;95962.41;;;9.19;57.53
59329;BME280;45100;46.926;7.452;2024-02-14T10:55:36;95962.91;;;9.26;57.21
59329;BME280;45100;46.926;7.452;2024-02-14T11:00:40;95953.08;;;9.35;58.56
59329;BME280;45100;46.926;7.452;2024-02-14T11:03:13;95957.66;;;9.39;58.22
59329;BME280;45100;46.926;7.452;2024-02-14T11:05:47;95957.59;;;9.42;57.74
59329;BME280;45100;46.926;7.452;2024-02-14T12:03:36;95932.22;;;11.34;49.51
59329;BME280;45100;46.926;7.452;2024-02-14T12:06:06;95926.00;;;11.43;49.16
59329;BME280;45100;46.926;7.452;2024-02-14T12:08:36;95925.24;;;11.53;48.53
59329;BME280;45100;46.926;7.452;2024-02-14T12:11:08;95925.72;;;11.62;49.02
59329;BME280;45100;46.926;7.452;2024-02-14T12:13:51;95924.83;;;11.69;48.87
59329;BME280;45100;46.926;7.452;2024-02-14T12:16:08;95919.23;;;11.75;48.88
59329;BME280;45100;46.926;7.452;2024-02-14T12:18:40;95910.84;;;11.79;48.33
59329;BME280;45100;46.926;7.452;2024-02-14T12:21:09;95915.62;;;11.84;49.30
59329;BME280;45100;46.926;7.452;2024-02-14T12:23:39;95914.80;;;11.87;49.39
59329;BME280;45100;46.926;7.452;2024-02-14T12:26:17;95916.80;;;11.89;49.81
59329;BME280;45100;46.926;7.452;2024-02-14T12:28:40;95915.98;;;11.90;49.50
59329;BME280;45100;46.926;7.452;2024-02-14T12:31:11;95913.31;;;11.98;50.33
59329;BME280;45100;46.926;7.452;2024-02-14T12:33:44;95920.40;;;12.09;50.05
59329;BME280;45100;46.926;7.452;2024-02-14T12:36:12;95920.70;;;12.20;49.50
59329;BME280;45100;46.926;7.452;2024-02-14T12:38:42;95918.18;;;12.28;50.16
59329;BME280;45100;46.926;7.452;2024-02-14T12:41:13;95914.17;;;12.33;50.30
59329;BME280;45100;46.926;7.452;2024-02-14T12:43:44;95911.13;;;12.37;51.12
59329;BME280;45100;46.926;7.452;2024-02-14T12:46:14;95910.25;;;12.39;50.96
59329;BME280;45100;46.926;7.452;2024-02-14T12:48:45;95904.42;;;12.37;51.12
59329;BME280;45100;46.926;7.452;2024-02-14T12:51:16;95896.92;;;12.34;51.43
59329;BME280;45100;46.926;7.452;2024-02-14T12:53:46;95893.56;;;12.32;52.21
59329;BME280;45100;46.926;7.452;2024-02-14T12:56:17;95884.61;;;12.32;52.22
59329;BME280;45100;46.926;7.452;2024-02-14T12:58:48;95888.60;;;12.38;54.27
59329;BME280;45100;46.926;7.452;2024-02-14T13:01:18;95886.31;;;12.42;53.91
59329;BME280;45100;46.926;7.452;2024-02-14T13:03:49;95886.42;;;12.46;54.15
59329;BME280;45100;46.926;7.452;2024-02-14T13:08:53;95890.80;;;12.46;54.23
59329;BME280;45100;46.926;7.452;2024-02-14T13:14:26;95889.02;;;12.32;55.77
59329;BME280;45100;46.926;7.452;2024-02-14T13:17:36;95882.52;;;12.25;56.07
59329;BME280;45100;46.926;7.452;2024-02-14T13:20:13;95875.22;;;12.20;56.23
59329;BME280;45100;46.926;7.452;2024-02-14T13:25:24;95866.92;;;12.13;56.89
59329;BME280;45100;46.926;7.452;2024-02-14T13:33:40;95867.08;;;12.13;58.15
59329;BME280;45100;46.926;7.452;2024-02-14T13:36:09;95865.03;;;12.15;58.36
59329;BME280;45100;46.926;7.452;2024-02-14T13:38:45;95864.25;;;12.16;58.32
59329;BME280;45100;46.926;7.452;2024-02-14T13:41:13;95859.17;;;12.14;58.45
59329;BME280;45100;46.926;7.452;2024-02-14T13:43:40;95865.43;;;12.14;59.71
59329;BME280;45100;46.926;7.452;2024-02-14T13:46:37;95866.44;;;12.13;60.14
59329;BME280;45100;46.926;7.452;2024-02-14T13:49:29;95865.64;;;12.10;60.38
59329;BME280;45100;46.926;7.452;2024-02-14T13:52:14;95863.69;;;12.06;60.73
59329;BME280;45100;46.926;7.452;2024-02-14T13:54:28;95861.07;;;12.03;60.85
59329;BME280;45100;46.926;7.452;2024-02-14T13:56:12;95854.77;;;12.02;61.31
59329;BME280;45100;46.926;7.452;2024-02-14T13:58:43;95853.20;;;12.04;61.98
59329;BME280;45100;46.926;7.452;2024-02-14T14:02:34;95848.88;;;12.07;62.12
59329;BME280;45100;46.926;7.452;2024-02-14T14:04:54;95846.11;;;12.09;61.71
59329;BME280;45100;46.926;7.452;2024-02-14T14:07:16;95846.07;;;12.11;61.52
59329;BME280;45100;46.926;7.452;2024-02-14T14:09:22;95841.20;;;12.12;61.60
59329;BME280;45100;46.926;7.452;2024-02-14T14:16:50;95839.65;;;12.18;62.19
59329;BME280;45100;46.926;7.452;2024-02-14T14:19:52;95840.28;;;12.20;63.15
59329;BME280;45100;46.926;7.452;2024-02-14T14:21:54;95837.56;;;12.21;63.09
59329;BME280;45100;46.926;7.452;2024-02-14T14:24:50;95834.03;;;12.22;63.08
59329;BME280;45100;46.926;7.452;2024-02-14T14:30:00;95835.48;;;12.20;63.13
59329;BME280;45100;46.926;7.452;2024-02-14T14:33:12;95838.89;;;12.20;63.89
59329;BME280;45100;46.926;7.452;2024-02-14T14:35:03;95834.20;;;12.19;63.98
